Time;durP1;ratioP1;P1;durP2;ratioP2;P2;SDS_P1;SDS_P2;PMS_P1;PMS_P2;Temp;Humidity;BMP_temperature;BMP_pressure;BME280_temperature;BME280_humidity;BME280_pressure;Samples;Min_cycle;Max_cycle;Signal;HPM_P1;HPM_P2
2022/10/24 00:00:06;;;;;;;62.70;34.58;;;12.20;99.90;;;;;;5056081;28;20119;-66
2022/10/24 00:02:34;;;;;;;67.70;38.47;;;12.20;99.90;;;;;;5054632;28;20029;-66
2022/10/24 00:05:00;;;;;;;75.78;43.33;;;12.10;99.90;;;;;;5056242;28;20139;-66
2022/10/24 00:07:26;;;;;;;82.88;46.88;;;12.00;99.90;;;;;;5055964;28;20032;-66
2022/10/24 00:09:52;;;;;;;79.75;44.28;;;12.00;99.90;;;;;;5056065;28;20111;-66
2022/10/24 00:12:19;;;;;;;71.45;39.33;;;12.00;99.90;;;;;;5054612;28;20044;-66
2022/10/24 00:14:46;;;;;;;69.65;38.20;;;12.00;99.90;;;;;;5055955;28;20478;-66
2022/10/24 00:17:12;;;;;;;63.20;34.88;;;12.00;99.90;;;;;;5055814;28;20033;-66
2022/10/24 00:19:38;;;;;;;62.00;33.72;;;12.00;99.90;;;;;;5056008;28;20409;-66
2022/10/24 00:22:04;;;;;;;60.33;33.85;;;11.90;99.90;;;;;;5055868;28;20065;-66
2022/10/24 00:24:30;;;;;;;54.17;32.67;;;11.80;99.90;;;;;;5055810;28;20404;-66
2022/10/24 00:26:56;;;;;;;62.78;34.13;;;11.90;99.90;;;;;;5055730;28;20462;-66
2022/10/24 00:29:22;;;;;;;56.20;31.33;;;11.90;99.90;;;;;;5054602;28;20032;-66
2022/10/24 00:31:48;;;;;;;58.05;32.67;;;11.80;99.90;;;;;;5055499;28;20071;-66
2022/10/24 00:34:15;;;;;;;60.97;33.10;;;11.70;99.90;;;;;;5055695;28;20053;-66
2022/10/24 00:36:41;;;;;;;60.45;33.05;;;11.70;99.90;;;;;;5055492;28;20037;-66
2022/10/24 00:39:07;;;;;;;54.28;32.70;;;11.70;99.90;;;;;;5054163;28;20040;-66
2022/10/24 00:41:41;;;;;;;63.38;34.50;;;11.60;99.90;;;;;;5055391;28;20029;-66
2022/10/24 00:44:18;;;;;;;73.28;35.88;;;11.70;99.90;;;;;;5054061;28;20029;-66
2022/10/24 00:47:03;;;;;;;56.97;34.53;;;11.60;99.90;;;;;;5055432;28;20035;-66
2022/10/24 00:49:50;;;;;;;59.78;33.13;;;11.50;99.90;;;;;;5055303;28;20099;-66
2022/10/24 00:52:22;;;;;;;61.33;35.67;;;11.60;99.90;;;;;;5055213;28;20032;-66
2022/10/24 00:54:50;;;;;;;65.63;34.33;;;11.50;99.90;;;;;;5055042;28;20116;-66
2022/10/24 00:57:24;;;;;;;58.67;33.75;;;11.50;99.90;;;;;;5054998;28;20053;-66
2022/10/24 00:59:55;;;;;;;61.92;34.65;;;11.50;99.90;;;;;;5053831;28;20033;-66
2022/10/24 01:02:21;;;;;;;65.10;35.53;;;11.40;99.90;;;;;;5055206;28;20025;-66
2022/10/24 01:04:47;;;;;;;63.88;35.63;;;11.40;99.90;;;;;;5053731;28;20542;-66
2022/10/24 01:07:13;;;;;;;63.85;35.80;;;11.50;99.90;;;;;;5053616;28;20394;-66
2022/10/24 01:10:01;;;;;;;60.58;33.92;;;11.40;99.90;;;;;;5053852;28;20036;-66
2022/10/24 01:12:55;;;;;;;72.60;36.08;;;11.50;99.90;;;;;;5053550;28;20441;-66
2022/10/24 01:15:39;;;;;;;67.07;34.55;;;11.60;99.90;;;;;;5053541;28;20112;-66
2022/10/24 01:18:11;;;;;;;63.83;33.65;;;11.60;99.90;;;;;;5054808;28;20025;-65
2022/10/24 01:20:52;;;;;;;61.65;33.45;;;11.40;99.90;;;;;;5053532;28;20067;-66
2022/10/24 01:23:20;;;;;;;;;;;11.40;99.90;;;;;;5053875;28;20087;-66
2022/10/24 01:25:58;;;;;;;64.20;34.47;;;11.30;99.90;;;;;;5054609;28;19958;-66
2022/10/24 01:28:34;;;;;;;57.15;32.17;;;11.30;99.90;;;;;;5054747;28;20487;-66
2022/10/24 01:31:06;;;;;;;58.30;32.33;;;11.40;99.90;;;;;;5054638;28;20063;-66
2022/10/24 01:33:40;;;;;;;63.17;33.35;;;11.40;99.90;;;;;;5054559;28;20033;-66
2022/10/24 01:36:13;;;;;;;62.53;32.88;;;11.40;99.90;;;;;;5053129;28;20036;-66
2022/10/24 01:38:53;;;;;;;58.25;31.90;;;11.10;99.90;;;;;;5053287;28;20029;-66
2022/10/24 01:41:22;;;;;;;58.65;33.10;;;11.00;99.90;;;;;;5054619;28;20025;-66
2022/10/24 01:44:05;;;;;;;59.75;33.78;;;11.00;99.90;;;;;;5052737;28;20028;-66
2022/10/24 01:46:41;;;;;;;53.42;31.02;;;11.00;99.90;;;;;;5036582;28;20040;-66
2022/10/24 01:49:12;;;;;;;57.25;30.25;;;11.00;99.90;;;;;;5053273;28;20086;-66
2022/10/24 01:51:40;;;;;;;48.38;29.70;;;11.10;99.90;;;;;;5054425;28;20033;-66
2022/10/24 01:54:07;;;;;;;52.95;31.52;;;11.00;99.90;;;;;;5053119;28;20025;-66
2022/10/24 01:56:33;;;;;;;56.00;29.65;;;11.10;99.90;;;;;;5052955;28;20112;-66
2022/10/24 01:59:28;;;;;;;49.63;28.88;;;11.00;99.90;;;;;;5052997;28;20083;-66
2022/10/24 02:02:14;;;;;;;53.47;30.08;;;11.00;99.90;;;;;;5047408;28;20459;-66
2022/10/24 02:04:54;;;;;;;57.83;31.23;;;10.90;99.90;;;;;;5048142;28;20094;-66
2022/10/24 02:07:21;;;;;;;57.33;30.08;;;10.90;99.90;;;;;;5054145;28;20543;-66
2022/10/24 02:09:52;;;;;;;63.72;32.60;;;10.90;99.90;;;;;;5053966;28;20036;-66
2022/10/24 02:12:20;;;;;;;;;;;10.80;99.90;;;;;;5053298;28;20473;-66
2022/10/24 02:14:50;;;;;;;52.20;28.88;;;10.90;99.90;;;;;;5052984;28;19909;-66
2022/10/24 02:17:17;;;;;;;53.80;27.75;;;10.70;99.90;;;;;;5052802;28;20165;-66
2022/10/24 02:19:43;;;;;;;58.22;30.75;;;10.70;99.90;;;;;;5054188;28;20057;-66
2022/10/24 02:22:18;;;;;;;59.17;31.02;;;10.70;99.90;;;;;;5052714;28;20029;-66
2022/10/24 02:25:11;;;;;;;54.85;29.80;;;10.70;99.90;;;;;;5052967;28;20029;-66
2022/10/24 02:27:54;;;;;;;56.83;31.50;;;10.70;99.90;;;;;;5052746;28;20437;-66
2022/10/24 02:30:23;;;;;;;58.22;31.30;;;10.70;99.90;;;;;;5053953;28;20048;-66
2022/10/24 02:32:57;;;;;;;53.13;31.02;;;10.80;99.90;;;;;;5053854;28;20033;-66
2022/10/24 02:35:27;;;;;;;53.05;30.45;;;10.70;99.90;;;;;;5053999;28;20037;-66
2022/10/24 02:38:00;;;;;;;59.05;31.83;;;10.70;99.90;;;;;;5053865;28;20033;-66
2022/10/24 02:40:26;;;;;;;63.35;31.73;;;10.60;99.90;;;;;;5036113;28;20055;-66
2022/10/24 02:42:55;;;;;;;66.38;33.25;;;10.60;99.90;;;;;;5053657;28;20056;-66
2022/10/24 02:45:22;;;;;;;69.70;34.58;;;10.60;99.90;;;;;;5053908;28;20028;-66
2022/10/24 02:47:49;;;;;;;60.85;34.22;;;10.60;99.90;;;;;;5053927;28;20542;-66
2022/10/24 02:50:15;;;;;;;78.75;32.42;;;10.60;99.90;;;;;;5035698;28;20040;-66
2022/10/24 02:52:42;;;;;;;62.88;34.22;;;10.60;99.90;;;;;;5053857;28;20033;-66
2022/10/24 02:55:10;;;;;;;60.60;31.02;;;10.40;99.90;;;;;;5053742;28;20025;-66
2022/10/24 02:57:36;;;;;;;58.75;31.30;;;10.50;99.90;;;;;;5055534;28;20044;-66
2022/10/24 03:00:04;;;;;;;60.78;31.50;;;10.50;99.90;;;;;;5057369;28;20037;-66
2022/10/24 03:02:29;;;;;;;57.25;32.35;;;10.50;99.90;;;;;;5056006;28;20037;-66
2022/10/24 03:04:55;;;;;;;55.58;29.90;;;10.40;99.90;;;;;;5057295;28;20021;-66
2022/10/24 03:07:21;;;;;;;65.05;30.63;;;10.50;99.90;;;;;;5057206;28;20379;-66
2022/10/24 03:09:47;;;;;;;64.15;31.05;;;10.50;99.90;;;;;;5057270;28;20532;-66
2022/10/24 03:12:15;;;;;;;67.70;33.58;;;10.60;99.90;;;;;;5057001;28;20043;-66
2022/10/24 03:14:42;;;;;;;71.80;34.00;;;10.50;99.90;;;;;;5057205;28;20478;-66
2022/10/24 03:17:08;;;;;;;61.15;30.83;;;10.50;99.90;;;;;;5057090;28;20036;-66
2022/10/24 03:19:34;;;;;;;54.17;30.25;;;10.50;99.90;;;;;;5057153;28;20033;-66
2022/10/24 03:22:00;;;;;;;55.28;30.25;;;10.60;99.90;;;;;;5055738;28;20029;-66
2022/10/24 03:24:26;;;;;;;62.13;30.00;;;10.60;99.90;;;;;;5055670;28;20471;-66
2022/10/24 03:26:52;;;;;;;51.40;30.92;;;10.50;99.90;;;;;;5056964;28;20090;-66
2022/10/24 03:29:18;;;;;;;53.67;30.92;;;10.60;99.90;;;;;;5056809;28;20036;-66
2022/10/24 03:31:45;;;;;;;54.67;30.63;;;10.60;99.90;;;;;;5055576;28;20037;-66
2022/10/24 03:34:11;;;;;;;55.75;31.90;;;10.50;99.90;;;;;;5056733;28;20025;-66
2022/10/24 03:36:37;;;;;;;54.65;29.92;;;10.50;99.90;;;;;;5055317;28;20029;-66
2022/10/24 03:39:03;;;;;;;50.83;28.75;;;10.60;99.90;;;;;;5056656;28;20116;-66
2022/10/24 03:41:29;;;;;;;57.78;30.15;;;10.50;99.90;;;;;;5055435;28;20048;-66
2022/10/24 03:43:56;;;;;;;48.22;28.23;;;10.50;99.90;;;;;;5055331;28;20021;-66
2022/10/24 03:46:21;;;;;;;51.50;28.15;;;10.50;99.90;;;;;;5056628;28;20451;-66
2022/10/24 03:48:47;;;;;;;59.40;30.60;;;10.50;99.90;;;;;;5056525;28;20103;-66
2022/10/24 03:51:14;;;;;;;57.03;30.88;;;10.60;99.90;;;;;;5055182;28;20029;-66
2022/10/24 03:53:40;;;;;;;69.28;33.28;;;10.50;99.90;;;;;;5056531;28;20371;-66
2022/10/24 03:56:07;;;;;;;86.20;37.03;;;10.50;99.90;;;;;;5055193;28;20024;-66
2022/10/24 03:58:33;;;;;;;66.57;33.55;;;10.50;99.90;;;;;;5056130;28;20131;-66
2022/10/24 04:00:59;;;;;;;89.53;39.20;;;10.60;99.90;;;;;;5055033;28;20064;-66
2022/10/24 04:03:26;;;;;;;77.30;35.88;;;10.50;99.90;;;;;;5054840;28;20036;-66
2022/10/24 04:05:52;;;;;;;74.65;33.67;;;10.40;99.90;;;;;;5054928;28;20116;-66
2022/10/24 04:08:18;;;;;;;65.35;32.55;;;10.40;99.90;;;;;;5055645;28;20025;-66
2022/10/24 04:10:45;;;;;;;64.82;32.33;;;10.40;99.90;;;;;;5054800;28;20095;-66
2022/10/24 04:13:11;;;;;;;59.13;31.13;;;10.30;99.90;;;;;;5054774;28;20025;-66
2022/10/24 04:15:36;;;;;;;70.57;32.00;;;10.30;99.90;;;;;;5054735;28;20033;-66
2022/10/24 04:18:02;;;;;;;60.85;31.58;;;10.30;99.90;;;;;;5055872;28;20512;-66
2022/10/24 04:20:28;;;;;;;63.45;31.77;;;10.30;99.90;;;;;;5037972;28;20040;-66
2022/10/24 04:22:54;;;;;;;65.55;31.77;;;10.30;99.90;;;;;;5054427;28;20033;-66
2022/10/24 04:25:20;;;;;;;73.50;32.80;;;10.30;99.90;;;;;;5055774;28;20036;-66
2022/10/24 04:27:46;;;;;;;73.57;32.03;;;10.30;99.90;;;;;;5054398;28;20039;-66
2022/10/24 04:30:14;;;;;;;56.90;28.40;;;10.30;99.90;;;;;;5054500;28;20112;-66
2022/10/24 04:32:40;;;;;;;57.63;27.55;;;10.20;99.90;;;;;;5054232;28;20065;-66
2022/10/24 04:35:06;;;;;;;60.08;26.02;;;10.20;99.90;;;;;;5054347;28;20074;-66
2022/10/24 04:37:32;;;;;;;55.15;28.23;;;10.20;99.90;;;;;;5053986;28;20033;-66
2022/10/24 04:39:58;;;;;;;51.03;24.42;;;10.20;99.90;;;;;;5054233;28;20033;-66
2022/10/24 04:42:24;;;;;;;57.95;27.58;;;10.20;99.90;;;;;;5055417;28;20028;-66
2022/10/24 04:44:50;;;;;;;53.88;28.45;;;10.20;99.90;;;;;;5055426;28;20146;-66
2022/10/24 04:47:16;;;;;;;57.97;26.55;;;10.20;99.90;;;;;;5055434;28;20111;-66
2022/10/24 04:49:43;;;;;;;52.65;25.88;;;10.20;99.90;;;;;;5055347;28;20032;-66
2022/10/24 04:52:10;;;;;;;52.40;25.63;;;10.20;99.90;;;;;;5053950;28;20527;-66
2022/10/24 04:54:36;;;;;;;59.67;28.42;;;10.10;99.90;;;;;;5054075;28;20048;-66
2022/10/24 04:57:02;;;;;;;57.63;27.23;;;10.00;99.90;;;;;;5054754;28;20029;-66
2022/10/24 04:59:27;;;;;;;52.55;28.08;;;10.00;99.90;;;;;;5055117;28;20029;-66
2022/10/24 05:01:53;;;;;;;62.35;31.77;;;9.90;99.90;;;;;;5053614;28;20364;-66
2022/10/24 05:04:20;;;;;;;55.70;28.60;;;10.00;99.90;;;;;;5053843;28;20039;-66
2022/10/24 05:06:46;;;;;;;61.05;28.83;;;10.00;99.90;;;;;;5054977;28;20040;-66
2022/10/24 05:09:13;;;;;;;52.55;25.58;;;9.90;99.90;;;;;;5054883;28;20037;-66
2022/10/24 05:11:39;;;;;;;49.65;25.33;;;9.90;99.90;;;;;;5053722;28;20025;-66
2022/10/24 05:14:05;;;;;;;52.78;26.50;;;9.90;99.90;;;;;;5053596;28;20371;-66
2022/10/24 05:16:32;;;;;;;51.47;25.20;;;9.80;99.90;;;;;;5054669;28;20117;-66
2022/10/24 05:18:57;;;;;;;52.08;23.80;;;9.80;99.90;;;;;;5053921;28;20382;-66
2022/10/24 05:21:23;;;;;;;47.10;24.73;;;9.70;99.90;;;;;;5051798;28;20025;-66
2022/10/24 05:23:49;;;;;;;53.47;27.42;;;9.70;99.90;;;;;;5043245;28;20048;-66
2022/10/24 05:26:16;;;;;;;57.40;29.67;;;9.60;99.90;;;;;;5044162;28;20037;-66
2022/10/24 05:28:42;;;;;;;59.95;30.13;;;9.60;99.90;;;;;;5020708;28;20171;-66
2022/10/24 05:31:08;;;;;;;57.17;30.13;;;9.80;99.90;;;;;;5043947;28;20017;-66
2022/10/24 05:33:34;;;;;;;65.72;30.95;;;9.80;99.90;;;;;;5016950;28;20609;-66
2022/10/24 05:36:00;;;;;;;66.95;34.40;;;9.80;99.90;;;;;;5032961;28;20034;-66
2022/10/24 05:38:26;;;;;;;70.95;33.90;;;9.80;99.90;;;;;;5034492;28;20030;-66
2022/10/24 05:40:52;;;;;;;73.10;36.85;;;9.90;99.90;;;;;;5033023;28;20107;-66
2022/10/24 05:43:18;;;;;;;96.90;45.33;;;10.10;99.90;;;;;;5032845;28;20018;-66
2022/10/24 05:45:46;;;;;;;66.90;32.03;;;10.10;99.90;;;;;;5039073;28;20760;-66
2022/10/24 05:48:12;;;;;;;60.17;28.23;;;10.30;99.90;;;;;;5046705;28;20033;-66
2022/10/24 05:50:39;;;;;;;64.00;29.42;;;10.50;99.90;;;;;;5032007;28;20057;-66
2022/10/24 05:53:07;;;;;;;65.95;31.13;;;10.60;99.90;;;;;;5030286;28;20036;-66
2022/10/24 05:55:34;;;;;;;69.10;29.73;;;10.80;99.90;;;;;;5033803;28;20037;-66
2022/10/24 05:58:00;;;;;;;57.47;27.25;;;11.00;99.90;;;;;;5031196;28;20037;-66
2022/10/24 06:00:26;;;;;;;49.28;26.08;;;11.20;99.90;;;;;;5032319;28;20109;-66
2022/10/24 06:02:52;;;;;;;54.90;25.42;;;11.40;99.90;;;;;;5028929;28;20026;-66
2022/10/24 06:05:19;;;;;;;45.22;23.27;;;11.60;99.90;;;;;;5032270;28;20363;-66
2022/10/24 06:07:47;;;;;;;60.42;26.88;;;11.70;99.90;;;;;;5032744;28;20043;-67
2022/10/24 06:10:14;;;;;;;58.17;28.67;;;12.00;99.90;;;;;;5032115;28;20041;-67
2022/10/24 06:12:40;;;;;;;51.97;24.60;;;12.40;99.90;;;;;;5033627;28;20395;-66
2022/10/24 06:15:08;;;;;;;64.05;29.45;;;12.70;99.90;;;;;;5033489;28;20498;-66
2022/10/24 06:17:36;;;;;;;64.72;32.60;;;13.20;99.90;;;;;;5028924;28;20032;-66
2022/10/24 06:20:06;;;;;;;60.53;28.73;;;13.60;99.90;;;;;;5032111;28;20029;-66
2022/10/24 06:22:32;;;;;;;58.22;27.95;;;14.10;99.90;;;;;;5026682;28;20022;-66
2022/10/24 06:24:58;;;;;;;61.38;30.17;;;14.70;99.90;;;;;;5033286;28;20029;-66
2022/10/24 06:27:26;;;;;;;59.72;28.15;;;15.00;99.90;;;;;;5048776;28;20041;-66
2022/10/24 06:29:52;;;;;;;67.47;27.45;;;15.30;99.90;;;;;;5033865;28;20116;-66
2022/10/24 06:32:18;;;;;;;63.88;27.65;;;15.10;99.90;;;;;;5035207;28;20042;-66
2022/10/24 06:34:46;;;;;;;88.38;30.67;;;15.20;99.90;;;;;;5035797;28;20048;-66
2022/10/24 06:37:12;;;;;;;57.75;26.38;;;15.40;99.90;;;;;;5035322;28;20025;-66
2022/10/24 06:39:38;;;;;;;74.03;28.88;;;15.60;99.90;;;;;;5029863;28;20034;-66
2022/10/24 06:42:04;;;;;;;65.28;28.77;;;15.40;99.90;;;;;;5021969;28;20046;-66
2022/10/24 06:44:30;;;;;;;71.82;30.85;;;15.50;99.90;;;;;;5032828;28;20025;-66
2022/10/24 06:46:56;;;;;;;72.85;32.17;;;15.80;99.90;;;;;;5035838;28;20047;-66
2022/10/24 06:49:22;;;;;;;57.30;29.88;;;16.10;99.90;;;;;;5035492;28;20108;-66
2022/10/24 06:51:48;;;;;;;72.40;33.92;;;15.90;99.90;;;;;;5035423;28;20072;-67
2022/10/24 06:54:14;;;;;;;78.63;38.03;;;15.70;99.90;;;;;;5036525;28;20075;-66
2022/10/24 06:56:40;;;;;;;76.22;36.42;;;16.10;99.90;;;;;;5034298;28;20029;-66
2022/10/24 06:59:14;;;;;;;72.82;35.67;;;16.30;99.90;;;;;;5035697;28;20045;-67
2022/10/24 07:01:41;;;;;;;75.07;35.90;;;16.10;99.90;;;;;;5034391;28;20091;-66
2022/10/24 07:04:07;;;;;;;70.20;35.70;;;16.00;99.90;;;;;;5034910;28;20044;-66
2022/10/24 07:06:36;;;;;;;93.97;35.83;;;16.30;99.90;;;;;;5036559;28;20052;-66
2022/10/24 07:09:04;;;;;;;76.13;34.72;;;16.60;99.90;;;;;;5034733;28;20073;-66
2022/10/24 07:11:30;;;;;;;84.93;35.45;;;16.80;99.90;;;;;;5017374;28;20029;-67
2022/10/24 07:13:56;;;;;;;82.03;32.65;;;16.90;99.90;;;;;;5035577;28;20021;-67
2022/10/24 07:16:23;;;;;;;94.10;36.67;;;16.90;99.90;;;;;;5034146;28;20080;-67
2022/10/24 07:18:49;;;;;;;82.82;35.80;;;17.20;99.90;;;;;;5036190;28;20108;-67
2022/10/24 07:21:19;;;;;;;89.13;38.70;;;17.50;99.90;;;;;;5035950;28;20663;-67
2022/10/24 07:23:45;;;;;;;74.20;36.20;;;18.10;99.90;;;;;;5035706;28;20502;-67
2022/10/24 07:26:16;;;;;;;75.65;39.00;;;18.70;99.90;;;;;;5011482;28;20026;-67
2022/10/24 07:28:45;;;;;;;80.43;40.38;;;18.80;99.90;;;;;;5020736;28;20488;-67
2022/10/24 07:31:15;;;;;;;77.07;40.80;;;19.10;99.90;;;;;;5013470;28;20036;-67
2022/10/24 07:41:16;;;;;;;85.28;44.28;;;18.80;99.90;;;;;;5059030;28;20091;-67
2022/10/24 07:43:43;;;;;;;83.15;42.28;;;19.50;99.70;;;;;;5039034;28;20025;-66
2022/10/24 07:46:11;;;;;;;96.57;41.92;;;19.40;98.90;;;;;;5035979;28;20029;-67
2022/10/24 07:48:38;;;;;;;87.72;41.38;;;20.00;98.40;;;;;;5038381;28;20037;-67
2022/10/24 07:51:06;;;;;;;74.40;39.35;;;20.50;96.90;;;;;;5042521;28;20031;-67
2022/10/24 07:53:32;;;;;;;76.18;42.28;;;20.50;96.10;;;;;;5055452;28;20417;-68
2022/10/24 07:55:59;;;;;;;81.28;40.63;;;21.00;96.00;;;;;;5048088;28;20401;-67
2022/10/24 07:58:26;;;;;;;73.03;38.67;;;21.60;94.00;;;;;;5049177;28;20552;-67
2022/10/24 08:00:53;;;;;;;85.50;38.88;;;22.30;91.70;;;;;;5055561;28;20383;-67
2022/10/24 08:03:19;;;;;;;80.82;38.28;;;22.70;90.20;;;;;;5035431;28;20136;-67
2022/10/24 08:05:46;;;;;;;70.85;35.15;;;22.80;86.90;;;;;;5052410;28;20036;-67
2022/10/24 08:08:12;;;;;;;82.45;38.55;;;23.10;83.50;;;;;;5051704;28;20503;-67
2022/10/24 08:10:38;;;;;;;76.03;38.45;;;23.10;82.80;;;;;;5057790;28;20025;-67
2022/10/24 08:13:04;;;;;;;66.70;37.97;;;23.70;81.80;;;;;;5036523;28;20028;-68
2022/10/24 08:15:30;;;;;;;71.10;38.92;;;23.60;78.00;;;;;;5037499;28;20025;-67
2022/10/24 08:17:56;;;;;;;77.25;39.17;;;23.70;76.60;;;;;;5021143;28;20056;-67
2022/10/24 08:20:25;;;;;;;73.40;41.22;;;23.40;78.60;;;;;;5053619;28;20039;-67
2022/10/24 08:22:51;;;;;;;77.32;37.55;;;23.10;80.30;;;;;;5054698;28;20025;-67
2022/10/24 08:25:17;;;;;;;68.72;36.10;;;23.00;80.50;;;;;;5052886;28;20056;-67
2022/10/24 08:27:43;;;;;;;60.10;33.50;;;22.90;80.20;;;;;;5032653;28;20033;-67
2022/10/24 08:30:16;;;;;;;59.85;28.25;;;22.90;82.20;;;;;;5056425;28;20029;-67
2022/10/24 08:33:21;;;;;;;55.40;25.27;;;23.50;79.20;;;;;;5049597;28;20033;-67
2022/10/24 08:35:56;;;;;;;61.33;30.75;;;23.80;77.70;;;;;;5053832;28;20037;-67
2022/10/24 08:38:22;;;;;;;49.70;25.40;;;24.00;77.00;;;;;;5035772;28;20394;-67
2022/10/24 08:40:49;;;;;;;49.17;24.17;;;24.30;74.60;;;;;;5035275;28;20025;-67
2022/10/24 08:43:16;;;;;;;50.78;24.70;;;24.50;76.30;;;;;;5053261;28;20025;-67
2022/10/24 08:46:07;;;;;;;47.58;23.85;;;25.00;75.80;;;;;;5052791;28;20066;-68
2022/10/24 08:48:52;;;;;;;41.80;21.60;;;25.20;71.20;;;;;;5053876;28;20036;-67
2022/10/24 08:51:29;;;;;;;44.30;21.40;;;25.50;70.10;;;;;;5053640;28;20037;-67
2022/10/24 08:53:58;;;;;;;39.88;20.38;;;25.70;67.40;;;;;;5051693;28;20033;-67
2022/10/24 08:56:28;;;;;;;43.55;20.13;;;25.50;67.70;;;;;;5054661;28;20425;-67
2022/10/24 08:58:55;;;;;;;41.42;20.83;;;25.40;68.10;;;;;;5054677;28;20049;-67
2022/10/24 09:01:39;;;;;;;57.95;22.33;;;25.30;68.90;;;;;;5035756;28;20036;-67
2022/10/24 09:04:10;;;;;;;45.22;20.67;;;25.70;67.80;;;;;;5051666;28;20447;-67
2022/10/24 09:06:37;;;;;;;47.53;21.02;;;25.90;68.20;;;;;;5054190;28;20028;-67
2022/10/24 09:09:08;;;;;;;46.08;21.98;;;25.80;67.80;;;;;;5062020;28;20033;-67
2022/10/24 09:12:00;;;;;;;47.15;21.88;;;26.30;66.80;;;;;;5053233;28;20021;-67
2022/10/24 09:14:32;;;;;;;46.80;23.05;;;26.40;65.00;;;;;;5035623;28;20032;-67
2022/10/24 09:17:00;;;;;;;55.88;22.42;;;26.80;62.90;;;;;;5030019;28;20036;-67
2022/10/24 09:19:28;;;;;;;50.17;22.38;;;26.90;63.30;;;;;;5053438;28;20032;-67
2022/10/24 09:21:55;;;;;;;42.85;21.33;;;27.10;63.80;;;;;;5055492;28;20060;-68
2022/10/24 09:24:46;;;;;;;44.25;22.60;;;27.70;60.60;;;;;;5053306;28;20116;-68
2022/10/24 09:27:20;;;;;;;40.55;21.63;;;28.20;60.20;;;;;;5043238;28;20046;-68
2022/10/24 09:29:46;;;;;;;46.45;20.98;;;28.40;58.40;;;;;;5025472;28;20193;-67
2022/10/24 09:32:25;;;;;;;62.95;23.25;;;28.30;58.00;;;;;;5014954;28;20116;-68
2022/10/24 09:34:52;;;;;;;54.78;23.23;;;28.90;56.50;;;;;;5026264;28;20060;-68
2022/10/24 09:37:54;;;;;;;48.33;22.10;;;29.10;55.60;;;;;;5053043;28;20505;-68
2022/10/24 09:40:33;;;;;;;49.15;21.58;;;29.60;54.60;;;;;;5052023;28;20028;-68
2022/10/24 09:43:19;;;;;;;50.97;21.38;;;29.70;53.00;;;;;;5042489;28;20024;-68
2022/10/24 09:45:49;;;;;;;52.90;21.30;;;29.50;54.30;;;;;;5048873;28;20081;-67
2022/10/24 09:48:25;;;;;;;49.95;21.63;;;29.70;53.10;;;;;;5018974;28;20053;-68
2022/10/24 09:51:10;;;;;;;54.40;21.08;;;29.00;53.90;;;;;;5054760;28;20090;-67
2022/10/24 09:53:55;;;;;;;44.75;20.77;;;28.80;55.80;;;;;;5031614;28;20032;-67
2022/10/24 09:56:31;;;;;;;48.30;22.00;;;29.40;55.00;;;;;;5035062;28;20067;-68
2022/10/24 09:59:15;;;;;;;48.22;19.02;;;29.40;53.70;;;;;;5050784;28;20128;-67
2022/10/24 10:01:41;;;;;;;41.65;18.33;;;29.20;53.80;;;;;;5035393;28;20517;-67
2022/10/24 10:04:16;;;;;;;46.50;19.25;;;29.20;55.00;;;;;;5039449;28;20025;-68
2022/10/24 10:06:47;;;;;;;53.42;19.90;;;29.40;53.50;;;;;;5058238;28;20024;-68
2022/10/24 10:09:22;;;;;;;45.20;18.45;;;29.70;53.80;;;;;;5057891;28;20033;-67
2022/10/24 10:11:55;;;;;;;54.40;22.42;;;30.00;53.50;;;;;;5068470;28;20420;-67
2022/10/24 10:14:25;;;;;;;36.70;18.27;;;29.80;53.30;;;;;;5055662;28;20025;-67
2022/10/24 10:17:03;;;;;;;39.80;17.40;;;30.10;53.80;;;;;;5057242;28;20039;-68
2022/10/24 10:19:37;;;;;;;46.63;18.45;;;30.30;52.90;;;;;;5055772;28;20036;-68
2022/10/24 10:22:19;;;;;;;38.60;14.93;;;30.50;53.10;;;;;;5023546;28;20598;-68
2022/10/24 10:24:46;;;;;;;42.75;15.73;;;30.40;52.30;;;;;;5058442;28;20414;-67
2022/10/24 10:27:32;;;;;;;31.83;15.45;;;30.80;51.20;;;;;;5057153;28;20032;-68
2022/10/24 10:30:09;;;;;;;27.80;15.93;;;30.80;52.00;;;;;;5036148;28;20063;-68
2022/10/24 10:33:11;;;;;;;44.15;16.48;;;31.00;50.70;;;;;;5020010;28;20390;-68
2022/10/24 10:35:58;;;;;;;34.53;15.75;;;31.00;52.30;;;;;;5028251;28;20103;-68
2022/10/24 10:38:43;;;;;;;33.17;16.63;;;30.90;50.30;;;;;;5039911;28;20045;-68
2022/10/24 10:41:18;;;;;;;37.92;17.02;;;30.50;50.80;;;;;;5039911;28;20110;-69
2022/10/24 10:43:44;;;;;;;40.47;21.15;;;30.50;53.70;;;;;;5057885;28;20021;-68
2022/10/24 10:46:28;;;;;;;53.88;22.45;;;30.30;53.20;;;;;;5057912;28;20036;-68
2022/10/24 10:49:03;;;;;;;55.92;23.83;;;30.30;52.50;;;;;;5057893;28;20060;-68
2022/10/24 10:51:56;;;;;;;57.58;27.48;;;30.30;51.80;;;;;;5038645;28;20112;-68
2022/10/24 10:54:54;;;;;;;58.33;27.27;;;30.00;52.10;;;;;;5032966;28;20044;-68
2022/10/24 10:57:58;;;;;;;67.03;33.33;;;30.20;51.40;;;;;;5054657;28;20053;-67
2022/10/24 11:00:42;;;;;;;88.63;37.85;;;30.20;52.80;;;;;;5044797;28;20466;-67
2022/10/24 11:03:36;;;;;;;91.18;40.05;;;30.40;51.00;;;;;;5051896;28;20111;-67
2022/10/24 11:06:33;;;;;;;109.82;43.65;;;30.40;50.80;;;;;;5053268;28;20029;-68
2022/10/24 11:09:23;;;;;;;102.13;44.20;;;30.30;50.70;;;;;;5049690;28;20171;-68
2022/10/24 11:12:17;;;;;;;108.82;42.78;;;30.40;50.40;;;;;;5068301;28;20055;-67
2022/10/24 11:14:52;;;;;;;104.07;39.55;;;30.70;50.60;;;;;;5060381;28;20463;-68
2022/10/24 11:17:23;;;;;;;86.63;36.10;;;30.00;49.60;;;;;;5061870;28;20414;-68
2022/10/24 11:20:33;;;;;;;91.38;33.08;;;30.00;50.90;;;;;;5045946;28;20071;-68
2022/10/24 11:23:13;;;;;;;81.03;33.55;;;29.80;51.00;;;;;;4962686;28;20492;-68
2022/10/24 11:25:45;;;;;;;81.07;33.15;;;29.80;51.00;;;;;;4975140;28;20031;-68
2022/10/24 11:28:31;;;;;;;75.88;29.42;;;29.80;51.10;;;;;;4976263;28;20085;-68
2022/10/24 11:31:24;;;;;;;69.50;27.38;;;29.80;51.20;;;;;;4985333;28;20050;-68
2022/10/24 11:34:16;;;;;;;83.28;29.83;;;30.00;51.60;;;;;;4981362;28;20071;-68
2022/10/24 11:36:59;;;;;;;68.05;28.67;;;30.30;51.20;;;;;;4978719;28;20467;-68
2022/10/24 11:39:30;;;;;;;84.85;31.23;;;30.10;50.30;;;;;;4983339;28;20026;-68
2022/10/24 11:41:58;;;;;;;;;;;30.00;50.30;;;;;;4975984;28;20099;-68
2022/10/24 11:44:36;;;;;;;68.90;27.25;;;30.10;49.70;;;;;;4975803;28;20388;-68
2022/10/24 11:47:22;;;;;;;64.78;25.95;;;30.20;49.80;;;;;;4974485;28;20054;-68
2022/10/24 11:49:53;;;;;;;76.38;27.85;;;30.20;50.00;;;;;;4929776;28;20452;-68
2022/10/24 11:52:26;;;;;;;68.30;26.73;;;30.40;49.90;;;;;;4952346;28;20066;-68
2022/10/24 11:54:58;;;;;;;65.18;25.52;;;30.30;50.00;;;;;;4957264;28;20086;-68
2022/10/24 11:57:28;;;;;;;62.78;27.08;;;30.30;50.60;;;;;;5008173;28;20040;-67
2022/10/24 11:59:56;;;;;;;67.20;25.95;;;29.90;50.50;;;;;;5035628;28;20056;-68
2022/10/24 12:02:22;;;;;;;56.38;24.65;;;30.10;51.60;;;;;;5051474;28;20032;-68
2022/10/24 12:05:26;;;;;;;52.55;22.67;;;30.10;50.10;;;;;;5043375;28;20025;-67
2022/10/24 12:08:25;;;;;;;52.47;21.27;;;30.20;50.30;;;;;;5042269;28;20057;-68
2022/10/24 12:10:57;;;;;;;52.38;22.58;;;29.90;50.80;;;;;;5055566;28;20025;-68
2022/10/24 12:13:25;;;;;;;61.72;20.73;;;30.30;50.70;;;;;;5056278;28;20036;-67
2022/10/24 12:16:18;;;;;;;46.72;20.83;;;30.60;49.80;;;;;;5051694;28;20025;-68
2022/10/24 12:18:49;;;;;;;66.82;22.55;;;31.00;48.60;;;;;;5053905;28;20052;-68
2022/10/24 12:21:20;;;;;;;58.05;21.23;;;31.20;47.80;;;;;;5039530;28;20798;-68
2022/10/24 12:23:55;;;;;;;59.45;19.90;;;31.20;46.90;;;;;;5035605;28;20037;-68
2022/10/24 12:26:28;;;;;;;50.78;20.25;;;31.30;47.70;;;;;;5055236;28;20021;-68
2022/10/24 12:29:06;;;;;;;56.92;21.25;;;31.30;46.50;;;;;;5027276;28;20033;-69
2022/10/24 12:31:37;;;;;;;49.80;20.73;;;31.20;47.20;;;;;;5036736;28;20494;-68
2022/10/24 12:34:23;;;;;;;53.50;17.80;;;31.20;47.50;;;;;;5036342;28;20071;-68
2022/10/24 12:37:11;;;;;;;45.70;17.65;;;31.30;45.70;;;;;;4991534;28;20049;-68
2022/10/24 12:39:49;;;;;;;45.95;18.65;;;31.20;45.50;;;;;;5038576;28;20021;-68
2022/10/24 12:42:31;;;;;;;40.28;16.40;;;30.90;46.50;;;;;;5055226;28;20035;-68
2022/10/24 12:45:00;;;;;;;45.47;18.00;;;31.00;46.60;;;;;;5054395;28;20490;-68
2022/10/24 12:47:36;;;;;;;54.03;17.35;;;30.80;46.10;;;;;;5055158;28;20029;-68
2022/10/24 12:50:21;;;;;;;54.05;18.83;;;30.40;45.60;;;;;;5054476;28;20496;-68
2022/10/24 12:52:47;;;;;;;44.88;19.10;;;30.60;46.30;;;;;;5051775;28;20056;-68
2022/10/24 12:55:36;;;;;;;41.65;17.38;;;29.70;47.70;;;;;;5053873;28;20598;-68
2022/10/24 12:58:33;;;;;;;49.33;18.42;;;30.10;47.40;;;;;;5051353;28;20110;-68